createdAt,value
2018-08-04T00:00:16.043Z,25.80
2018-08-04T00:02:44.940Z,25.70
2018-08-04T00:05:13.216Z,25.70
2018-08-04T00:07:41.650Z,25.70
2018-08-04T00:10:16.522Z,25.70
2018-08-04T00:12:45.499Z,25.60
2018-08-04T00:15:14.304Z,25.60
2018-08-04T00:17:43.018Z,25.50
2018-08-04T00:20:11.264Z,25.50
2018-08-04T00:22:39.455Z,25.50
2018-08-04T00:25:08.638Z,25.50
2018-08-04T00:27:37.795Z,25.40
2018-08-04T00:30:09.888Z,25.40
2018-08-04T00:32:38.499Z,25.40
2018-08-04T00:35:07.227Z,25.30
2018-08-04T00:37:36.372Z,25.30
2018-08-04T00:40:05.979Z,25.30
2018-08-04T00:42:34.895Z,25.20
2018-08-04T00:45:04.928Z,25.20
2018-08-04T00:47:34.691Z,25.10
2018-08-04T00:50:03.936Z,25.10
2018-08-04T00:52:36.468Z,25.10
2018-08-04T00:55:06.715Z,25.00
2018-08-04T00:57:35.008Z,25.00
2018-08-04T01:00:04.943Z,25.00
2018-08-04T01:02:34.407Z,25.00
2018-08-04T01:05:04.347Z,25.00
2018-08-04T01:07:33.874Z,25.00
2018-08-04T01:10:04.153Z,25.00
2018-08-04T01:12:32.464Z,25.00
2018-08-04T01:15:02.024Z,25.00
2018-08-04T01:17:32.491Z,24.90
2018-08-04T01:20:08.559Z,24.90
2018-08-04T01:22:38.975Z,24.90
2018-08-04T01:25:07.795Z,24.80
2018-08-04T01:30:06.886Z,24.80
2018-08-04T01:32:35.832Z,24.80
2018-08-04T01:35:04.108Z,24.80
2018-08-04T01:37:34.731Z,24.80
2018-08-04T01:40:06.982Z,24.80
2018-08-04T01:42:35.693Z,24.80
2018-08-04T01:45:06.658Z,24.70
2018-08-04T01:47:34.857Z,24.70
2018-08-04T01:50:03.949Z,24.70
2018-08-04T01:52:32.881Z,24.70
2018-08-04T01:55:02.011Z,24.60
2018-08-04T01:57:30.272Z,24.50
2018-08-04T02:00:00.880Z,24.50
2018-08-04T02:02:29.702Z,24.50
2018-08-04T02:04:58.444Z,24.50
2018-08-04T02:07:28.084Z,24.50
2018-08-04T02:09:57.613Z,24.50
2018-08-04T02:12:27.398Z,24.50
2018-08-04T02:14:58.671Z,24.40
2018-08-04T02:17:29.043Z,24.40
2018-08-04T02:19:59.099Z,24.40
2018-08-04T02:22:27.532Z,24.40
2018-08-04T02:24:56.068Z,24.30
2018-08-04T02:27:24.281Z,24.30
2018-08-04T02:29:54.211Z,24.30
2018-08-04T02:32:22.460Z,24.30
2018-08-04T02:34:51.924Z,24.30
2018-08-04T02:37:20.619Z,24.30
2018-08-04T02:39:50.043Z,24.30
2018-08-04T02:42:20.164Z,24.20
2018-08-04T02:44:49.453Z,24.20
2018-08-04T02:47:19.169Z,24.20
2018-08-04T02:49:53.385Z,24.10
2018-08-04T02:52:24.356Z,24.10
2018-08-04T02:54:54.242Z,24.10
2018-08-04T02:57:23.292Z,24.00
2018-08-04T02:59:52.895Z,24.00
2018-08-04T03:02:21.783Z,24.00
2018-08-04T03:04:50.884Z,24.00
2018-08-04T03:07:21.231Z,23.90
2018-08-04T03:09:53.985Z,23.90
2018-08-04T03:12:23.444Z,23.90
2018-08-04T03:14:51.679Z,23.90
2018-08-04T03:17:20.162Z,23.80
2018-08-04T03:19:50.364Z,23.70
2018-08-04T03:24:48.123Z,23.60
2018-08-04T03:27:16.809Z,23.60
2018-08-04T03:29:45.307Z,23.60
2018-08-04T03:32:14.844Z,23.50
2018-08-04T03:34:47.233Z,23.50
2018-08-04T03:37:16.111Z,23.50
2018-08-04T03:39:45.655Z,23.50
2018-08-04T03:42:13.918Z,23.40
2018-08-04T03:47:12.257Z,23.30
2018-08-04T03:49:42.584Z,23.30
2018-08-04T03:52:12.074Z,23.20
2018-08-04T03:54:42.094Z,23.20
2018-08-04T03:57:10.345Z,23.20
2018-08-04T03:59:39.125Z,23.20
2018-08-04T04:02:07.312Z,23.10
2018-08-04T04:04:35.732Z,23.10
2018-08-04T04:07:06.115Z,23.00
2018-08-04T04:12:07.627Z,23.00
2018-08-04T04:14:37.367Z,23.00
2018-08-04T04:17:05.908Z,23.00
2018-08-04T04:19:34.151Z,22.90
2018-08-04T04:22:03.463Z,22.90
2018-08-04T04:24:31.928Z,22.90
2018-08-04T04:27:00.167Z,22.90
2018-08-04T04:29:28.403Z,22.90
2018-08-04T04:31:57.103Z,22.90
2018-08-04T04:34:25.737Z,22.90
2018-08-04T04:36:54.018Z,22.90
2018-08-04T04:39:22.275Z,22.80
2018-08-04T04:44:18.948Z,22.80
2018-08-04T04:46:48.157Z,22.80
2018-08-04T04:51:45.703Z,22.80
2018-08-04T04:54:14.096Z,22.80
2018-08-04T04:56:42.356Z,22.80
2018-08-04T04:59:11.235Z,22.80
2018-08-04T05:01:40.748Z,22.90
2018-08-04T05:04:11.406Z,22.90
2018-08-04T05:06:39.652Z,22.90
2018-08-04T05:09:10.702Z,22.90
2018-08-04T05:11:40.694Z,22.90
2018-08-04T05:14:10.008Z,22.90
2018-08-04T05:16:39.271Z,22.80
2018-08-04T05:19:09.019Z,22.80
2018-08-04T05:21:38.281Z,22.70
2018-08-04T05:24:06.423Z,22.80
2018-08-04T05:26:37.636Z,22.70
2018-08-04T05:29:06.168Z,22.80
2018-08-04T05:31:34.410Z,22.70
2018-08-04T05:34:04.012Z,22.70
2018-08-04T05:36:33.543Z,22.70
2018-08-04T05:44:00.937Z,22.60
2018-08-04T05:49:00.488Z,22.60
2018-08-04T05:51:29.660Z,22.60
2018-08-04T05:56:30.071Z,22.60
2018-08-04T05:59:00.824Z,22.60
2018-08-04T06:01:30.007Z,22.60
2018-08-04T06:03:59.236Z,22.60
2018-08-04T06:06:27.890Z,22.70
2018-08-04T06:08:56.835Z,22.70
2018-08-04T06:11:29.566Z,22.80
2018-08-04T06:14:02.299Z,22.80
2018-08-04T06:16:31.098Z,22.90
2018-08-04T06:18:59.366Z,23.00
2018-08-04T06:21:28.242Z,23.00
2018-08-04T06:23:56.903Z,23.10
2018-08-04T06:26:26.004Z,23.20
2018-08-04T06:28:54.973Z,23.30
2018-08-04T06:31:23.917Z,23.40
2018-08-04T06:33:53.480Z,23.40
2018-08-04T06:36:21.946Z,23.50
2018-08-04T06:38:51.388Z,23.60
2018-08-04T06:41:24.469Z,23.70
2018-08-04T06:43:53.507Z,23.70
2018-08-04T06:46:23.049Z,23.90
2018-08-04T06:48:51.243Z,23.90
2018-08-04T06:51:21.846Z,24.10
2018-08-04T06:53:51.453Z,24.10
2018-08-04T06:56:19.688Z,24.20
2018-08-04T06:58:48.897Z,24.30
2018-08-04T07:01:18.464Z,24.40
2018-08-04T07:03:48.368Z,24.50
2018-08-04T07:06:17.087Z,24.60
2018-08-04T07:08:47.795Z,24.70
2018-08-04T07:11:17.932Z,24.70
2018-08-04T07:13:47.797Z,24.70
2018-08-04T07:16:16.956Z,24.90
2018-08-04T07:18:46.651Z,24.90
2018-08-04T07:21:15.593Z,25.00
2018-08-04T07:23:46.315Z,25.10
2018-08-04T07:26:16.674Z,25.20
2018-08-04T07:31:15.801Z,25.40
2018-08-04T07:33:44.234Z,25.50
2018-08-04T07:36:14.036Z,25.60
2018-08-04T07:38:42.678Z,25.70
2018-08-04T07:41:12.463Z,25.80
2018-08-04T07:43:40.682Z,25.90
2018-08-04T07:46:10.104Z,26.00
2018-08-04T07:48:39.062Z,26.10
2018-08-04T07:51:08.216Z,26.20
2018-08-04T07:53:39.015Z,26.30
2018-08-04T07:56:07.591Z,26.40
2018-08-04T07:58:36.748Z,26.40
2018-08-04T08:03:34.717Z,26.50
2018-08-04T08:08:31.436Z,26.70
2018-08-04T08:11:02.053Z,26.80
2018-08-04T08:13:31.438Z,26.90
2018-08-04T08:16:00.903Z,26.90
2018-08-04T08:18:30.850Z,27.00
2018-08-04T08:21:00.119Z,27.10
2018-08-04T08:23:30.482Z,27.20
2018-08-04T08:26:09.164Z,27.20
2018-08-04T08:28:37.838Z,27.30
2018-08-04T08:31:06.658Z,27.40
2018-08-04T08:33:35.003Z,27.40
2018-08-04T08:36:05.765Z,27.50
2018-08-04T08:38:35.139Z,27.50
2018-08-04T08:41:04.224Z,27.60
2018-08-04T08:43:34.388Z,27.70
2018-08-04T08:46:03.231Z,27.70
2018-08-04T08:48:32.021Z,27.80
2018-08-04T08:51:02.341Z,27.90
2018-08-04T08:53:31.392Z,28.00
2018-08-04T08:56:01.924Z,28.10
2018-08-04T08:58:31.611Z,28.20
2018-08-04T09:01:00.124Z,28.20
2018-08-04T09:03:28.387Z,28.30
2018-08-04T09:05:58.852Z,28.40
2018-08-04T09:08:27.180Z,28.50
2018-08-04T09:11:01.976Z,28.60
2018-08-04T09:13:33.035Z,28.70
2018-08-04T09:16:02.521Z,28.80
2018-08-04T09:18:33.345Z,28.80
2018-08-04T09:21:04.511Z,28.90
2018-08-04T09:23:34.062Z,29.00
2018-08-04T09:26:03.893Z,29.10
2018-08-04T09:28:34.296Z,29.20
2018-08-04T09:31:03.931Z,29.20
2018-08-04T09:33:34.452Z,29.20
2018-08-04T09:36:06.969Z,29.20
2018-08-04T09:38:36.013Z,29.30
2018-08-04T09:41:06.233Z,29.30
2018-08-04T09:43:35.990Z,29.40
2018-08-04T09:46:07.618Z,29.50
2018-08-04T09:48:36.651Z,29.50
2018-08-04T09:51:06.495Z,29.70
2018-08-04T09:53:37.180Z,29.70
2018-08-04T09:56:08.204Z,29.70
2018-08-04T09:58:37.201Z,29.70
2018-08-04T10:01:12.221Z,29.80
2018-08-04T10:03:41.888Z,29.90
2018-08-04T10:06:12.576Z,29.90
2018-08-04T10:08:41.994Z,30.00
2018-08-04T10:11:12.484Z,29.90
2018-08-04T10:13:43.195Z,30.00
2018-08-04T10:16:13.246Z,30.10
2018-08-04T10:18:42.754Z,30.20
2018-08-04T10:21:13.404Z,30.30
2018-08-04T10:23:44.091Z,30.40
2018-08-04T10:26:14.117Z,30.50
2018-08-04T10:28:43.689Z,30.50
2018-08-04T10:31:13.692Z,30.60
2018-08-04T10:33:43.492Z,30.60
2018-08-04T10:36:12.791Z,30.70
2018-08-04T10:38:42.148Z,30.80
2018-08-04T10:41:11.303Z,30.90
2018-08-04T10:43:40.933Z,30.70
2018-08-04T10:46:10.331Z,30.60
2018-08-04T10:48:41.306Z,30.60
2018-08-04T10:51:10.643Z,30.70
2018-08-04T10:56:10.211Z,30.70
2018-08-04T10:58:39.411Z,30.80
2018-08-04T11:01:09.204Z,30.80
2018-08-04T11:06:17.579Z,30.80
2018-08-04T11:08:48.683Z,30.90
2018-08-04T11:11:17.869Z,31.00
2018-08-04T11:13:47.668Z,31.10
2018-08-04T11:16:17.786Z,31.30
2018-08-04T11:18:48.020Z,31.40
2018-08-04T11:21:17.504Z,31.50
2018-08-04T11:23:47.431Z,31.70
2018-08-04T11:31:17.288Z,31.70
2018-08-04T11:33:47.696Z,31.90
2018-08-04T11:36:17.828Z,31.90
2018-08-04T11:38:49.077Z,32.10
2018-08-04T11:41:21.158Z,32.20
2018-08-04T11:43:53.731Z,32.20
2018-08-04T11:46:23.336Z,32.30
2018-08-04T11:48:53.490Z,32.50
2018-08-04T11:51:23.892Z,32.60
2018-08-04T11:54:02.371Z,32.80
2018-08-04T11:56:34.220Z,33.00
2018-08-04T11:59:04.228Z,33.10
2018-08-04T12:01:35.818Z,33.20
2018-08-04T12:04:05.974Z,33.20
2018-08-04T12:06:35.789Z,33.20
2018-08-04T12:09:07.085Z,33.40
2018-08-04T12:11:38.679Z,33.50
2018-08-04T12:14:08.256Z,33.60
2018-08-04T12:16:38.283Z,33.80
2018-08-04T12:19:08.844Z,33.80
2018-08-04T12:21:39.378Z,34.00
2018-08-04T12:24:09.497Z,34.10
2018-08-04T12:26:38.577Z,34.10
2018-08-04T12:29:09.313Z,34.10
2018-08-04T12:31:38.637Z,34.20
2018-08-04T12:34:13.039Z,34.40
2018-08-04T12:36:42.924Z,34.30
2018-08-04T12:39:13.543Z,34.30
2018-08-04T12:41:45.365Z,34.40
2018-08-04T12:44:21.950Z,34.50
2018-08-04T12:46:52.673Z,34.60
2018-08-04T12:49:22.438Z,34.70
2018-08-04T12:51:52.568Z,34.80
2018-08-04T12:54:22.866Z,34.80
2018-08-04T12:56:52.186Z,35.10
2018-08-04T12:59:21.481Z,35.40
2018-08-04T13:01:52.358Z,35.80
2018-08-04T13:04:27.097Z,35.90
2018-08-04T13:06:57.405Z,36.10
2018-08-04T13:09:27.484Z,36.50
2018-08-04T13:11:57.492Z,36.80
2018-08-04T13:14:27.847Z,37.00
2018-08-04T13:17:00.209Z,36.90
2018-08-04T13:19:31.320Z,36.90
2018-08-04T13:24:30.633Z,36.60
2018-08-04T13:27:01.195Z,36.70
2018-08-04T13:29:30.466Z,37.00
2018-08-04T13:32:00.617Z,37.00
2018-08-04T13:34:30.680Z,36.80
2018-08-04T13:37:01.187Z,36.60
2018-08-04T13:39:31.182Z,36.40
2018-08-04T13:42:00.846Z,36.40
2018-08-04T13:44:32.401Z,36.50
2018-08-04T13:47:03.643Z,36.70
2018-08-04T13:49:38.093Z,37.40
2018-08-04T13:52:11.500Z,38.80
2018-08-04T13:54:42.683Z,40.50
2018-08-04T13:57:13.140Z,42.10
2018-08-04T13:59:42.864Z,43.50
2018-08-04T14:02:11.602Z,44.40
2018-08-04T14:04:41.988Z,45.40
2018-08-04T14:07:11.972Z,45.80
2018-08-04T14:09:41.209Z,46.40
2018-08-04T14:12:10.976Z,47.10
2018-08-04T14:14:43.864Z,48.20
2018-08-04T14:17:15.139Z,48.20
2018-08-04T14:19:44.217Z,47.70
2018-08-04T14:22:13.773Z,46.70
2018-08-04T14:24:44.046Z,47.30
2018-08-04T14:27:15.821Z,46.50
2018-08-04T14:29:46.520Z,45.30
2018-08-04T14:32:16.064Z,44.00
2018-08-04T14:34:46.417Z,43.80
2018-08-04T14:37:16.495Z,45.20
2018-08-04T14:39:48.278Z,46.20
2018-08-04T14:42:17.354Z,46.90
2018-08-04T14:44:46.653Z,47.00
2018-08-04T14:47:16.686Z,47.60
2018-08-04T14:49:46.719Z,47.60
2018-08-04T14:52:17.636Z,46.20
2018-08-04T14:54:52.239Z,44.60
2018-08-04T14:57:22.537Z,43.50
2018-08-04T14:59:53.356Z,42.90
2018-08-04T15:02:24.026Z,43.70
2018-08-04T15:04:53.644Z,44.40
2018-08-04T15:07:25.275Z,43.10
2018-08-04T15:09:55.114Z,41.80
2018-08-04T15:14:55.194Z,41.40
2018-08-04T15:19:58.154Z,39.80
2018-08-04T15:22:28.603Z,38.90
2018-08-04T15:24:58.293Z,38.20
2018-08-04T15:27:28.055Z,37.60
2018-08-04T15:32:27.579Z,36.80
2018-08-04T15:34:59.050Z,36.50
2018-08-04T15:37:28.817Z,36.10
2018-08-04T15:39:58.743Z,35.90
2018-08-04T15:42:28.656Z,35.50
2018-08-04T15:44:59.142Z,35.30
2018-08-04T15:47:28.331Z,35.00
2018-08-04T15:49:58.897Z,34.80
2018-08-04T15:52:29.972Z,34.50
2018-08-04T15:55:01.072Z,34.30
2018-08-04T15:57:30.649Z,34.20
2018-08-04T16:00:02.556Z,34.10
2018-08-04T16:02:32.584Z,33.90
2018-08-04T16:05:02.484Z,33.80
